Time;durP1;ratioP1;P1;durP2;ratioP2;P2;SDS_P1;SDS_P2;PMS_P1;PMS_P2;Temp;Humidity;BMP_temperature;BMP_pressure;BME280_temperature;BME280_humidity;BME280_pressure;Samples;Min_cycle;Max_cycle;Signal;HPM_P1;HPM_P2
2022/03/01 00:01:55;;;;;;;11.75;6.32;;;;;;;1.47;53.36;101319.78;4485011;32;33884;-66
2022/03/01 00:04:22;;;;;;;10.45;5.65;;;;;;;1.63;52.79;101312.75;4485731;32;34196;-68
2022/03/01 00:06:50;;;;;;;9.30;5.40;;;;;;;1.64;52.64;101313.59;4485244;32;34516;-68
2022/03/01 00:09:17;;;;;;;10.02;5.12;;;;;;;1.46;53.25;101315.44;4486010;32;33405;-68
2022/03/01 00:11:45;;;;;;;10.02;5.20;;;;;;;1.34;53.52;101309.44;4485605;32;34977;-67
2022/03/01 00:14:12;;;;;;;9.88;4.95;;;;;;;1.12;54.30;101314.19;4485276;32;35108;-66
2022/03/01 00:16:40;;;;;;;9.40;4.93;;;;;;;1.98;51.91;101315.59;4485506;32;34552;-68
2022/03/01 00:19:08;;;;;;;10.30;5.53;;;;;;;1.81;52.24;101309.25;4485508;32;33546;-68
2022/03/01 00:21:35;;;;;;;7.35;4.60;;;;;;;1.57;52.90;101323.22;4485374;32;34358;-68
2022/03/01 00:24:03;;;;;;;6.37;4.25;;;;;;;1.53;52.93;101306.62;4485771;32;34265;-69
2022/03/01 00:26:31;;;;;;;9.13;5.32;;;;;;;1.44;52.85;101308.37;4485495;32;33769;-68
2022/03/01 00:28:58;;;;;;;0.70;0.70;;;;;;;1.48;53.08;101303.59;4485248;32;34787;-69
2022/03/01 00:31:25;;;;;;;8.95;4.80;;;;;;;1.38;53.40;101303.66;4485490;32;33647;-68
2022/03/01 00:33:53;;;;;;;0.43;0.43;;;;;;;1.54;52.91;101304.81;4485259;32;35001;-68
2022/03/01 00:36:21;;;;;;;5.32;4.10;;;;;;;1.77;52.01;101302.53;4485297;32;33634;-66
2022/03/01 00:38:48;;;;;;;8.70;4.43;;;;;;;1.29;53.36;101301.03;4484873;32;33310;-68
2022/03/01 00:41:16;;;;;;;6.22;4.22;;;;;;;1.62;52.40;101304.87;4485432;32;34512;-68
2022/03/01 00:43:43;;;;;;;0.70;0.70;;;;;;;1.21;53.22;101299.13;4485088;32;34977;-67
2022/03/01 00:46:10;;;;;;;1.25;1.17;;;;;;;1.44;52.73;101304.87;4485279;32;34595;-69
2022/03/01 00:48:38;;;;;;;7.35;4.50;;;;;;;1.08;53.18;101302.16;4485335;32;34285;-68
2022/03/01 00:51:06;;;;;;;7.43;4.25;;;;;;;1.41;53.11;101305.19;4485189;32;33850;-68
2022/03/01 00:53:33;;;;;;;7.95;4.18;;;;;;;1.50;52.34;101296.25;4485156;32;34313;-68
2022/03/01 00:56:04;;;;;;;6.60;4.03;;;;;;;2.02;51.19;101306.25;4485140;32;34720;-69
2022/03/01 00:58:31;;;;;;;7.97;4.50;;;;;;;1.52;52.34;101312.16;4485276;32;33547;-67
2022/03/01 01:00:59;;;;;;;2.65;1.83;;;;;;;1.42;52.43;101302.34;4485035;32;34061;-68
2022/03/01 01:03:27;;;;;;;7.78;4.70;;;;;;;1.47;52.38;101293.03;4484835;32;34147;-68
2022/03/01 01:05:54;;;;;;;2.92;1.87;;;;;;;1.35;53.06;101305.78;4485095;32;34489;-68
2022/03/01 01:08:22;;;;;;;7.03;4.32;;;;;;;1.42;52.38;101288.97;4484931;32;34088;-67
2022/03/01 01:10:50;;;;;;;6.40;3.97;;;;;;;1.69;51.54;101289.94;4484613;32;33756;-66
2022/03/01 01:13:17;;;;;;;3.15;2.12;;;;;;;2.03;50.42;101287.38;4486704;32;34736;-68
2022/03/01 01:15:45;;;;;;;8.52;4.60;;;;;;;2.18;50.44;101289.47;4487044;32;34499;-68
2022/03/01 01:18:12;;;;;;;6.22;3.83;;;;;;;1.78;51.32;101293.50;4486877;32;33470;-68
2022/03/01 01:20:40;;;;;;;7.15;4.15;;;;;;;1.45;51.66;101274.47;4486918;32;33872;-68
2022/03/01 01:23:07;;;;;;;8.02;4.50;;;;;;;1.57;52.00;101288.47;4486768;32;34244;-69
2022/03/01 01:25:35;;;;;;;0.62;0.62;;;;;;;1.57;51.54;101288.47;4486574;32;34582;-68
2022/03/01 01:28:02;;;;;;;0.85;0.85;;;;;;;1.53;51.76;101287.06;4486801;32;33212;-68
2022/03/01 01:30:32;;;;;;;7.10;4.30;;;;;;;1.15;52.56;101294.37;4486818;32;34808;-68
2022/03/01 01:33:00;;;;;;;0.60;0.60;;;;;;;1.36;52.21;101288.72;4486556;32;34218;-68
2022/03/01 01:35:30;;;;;;;6.15;3.95;;;;;;;1.19;52.60;101293.91;4486845;32;34013;-68
2022/03/01 01:37:58;;;;;;;6.65;4.22;;;;;;;1.15;52.80;101292.53;4486639;32;33073;-68
2022/03/01 01:40:28;;;;;;;6.65;4.30;;;;;;;1.43;52.12;101289.84;4486268;32;33647;-68
2022/03/01 01:42:57;;;;;;;6.55;3.70;;;;;;;1.54;51.75;101292.28;4485728;32;34198;-69
2022/03/01 01:45:26;;;;;;;2.53;2.22;;;;;;;1.66;50.92;101290.22;4485810;32;33907;-68
2022/03/01 01:47:54;;;;;;;5.45;3.50;;;;;;;1.22;52.55;101298.13;4486459;32;33427;-68
2022/03/01 01:50:23;;;;;;;6.70;4.10;;;;;;;1.06;52.60;101298.78;4486683;32;34077;-69
2022/03/01 01:52:52;;;;;;;7.28;4.00;;;;;;;1.46;51.95;101294.03;4486780;32;34277;-69
2022/03/01 01:55:23;;;;;;;2.58;1.75;;;;;;;0.99;52.64;101290.50;4486525;32;34746;-68
2022/03/01 01:57:57;;;;;;;7.40;4.20;;;;;;;1.41;51.96;101289.97;4486586;32;33274;-70
2022/03/01 02:00:25;;;;;;;7.72;4.12;;;;;;;1.74;50.99;101289.47;4486323;32;34662;-68
2022/03/01 02:02:53;;;;;;;6.05;3.85;;;;;;;1.56;51.15;101284.94;4486610;32;34122;-68
2022/03/01 02:05:21;;;;;;;7.05;4.05;;;;;;;1.76;50.96;101284.78;4486428;32;34544;-66
2022/03/01 02:07:49;;;;;;;5.45;3.78;;;;;;;1.41;51.39;101279.28;4486351;32;33262;-69
2022/03/01 02:10:17;;;;;;;5.95;3.90;;;;;;;1.35;51.66;101281.72;4486208;32;34668;-69
2022/03/01 02:12:45;;;;;;;5.45;3.65;;;;;;;1.60;50.87;101282.81;4486471;32;34002;-69
2022/03/01 02:15:13;;;;;;;3.62;2.17;;;;;;;1.77;50.28;101278.44;4486185;32;34604;-69
2022/03/01 02:17:42;;;;;;;6.10;4.00;;;;;;;2.00;49.70;101278.81;4486279;32;34321;-68
2022/03/01 02:20:17;;;;;;;10.50;4.85;;;;;;;2.04;49.72;101274.81;4486378;32;34858;-68
2022/03/01 02:22:45;;;;;;;5.80;3.80;;;;;;;2.39;48.60;101273.06;4486111;32;34322;-68
2022/03/01 02:25:13;;;;;;;6.25;3.70;;;;;;;2.52;48.07;101275.31;4486181;32;34649;-68
2022/03/01 02:27:41;;;;;;;3.62;2.60;;;;;;;2.00;49.21;101276.97;4486389;32;33677;-68
2022/03/01 02:30:10;;;;;;;6.82;4.00;;;;;;;2.57;47.71;101281.03;4486568;32;34660;-69
2022/03/01 02:32:39;;;;;;;0.40;0.40;;;;;;;2.13;48.69;101273.06;4486423;32;35140;-69
2022/03/01 02:35:08;;;;;;;6.05;3.50;;;;;;;2.42;48.42;101278.13;4485936;32;33842;-68
2022/03/01 02:37:36;;;;;;;4.95;3.45;;;;;;;2.10;48.97;101268.84;4486073;32;34210;-68
2022/03/01 02:40:08;;;;;;;7.25;3.50;;;;;;;2.21;48.45;101273.94;4485939;32;34670;-68
2022/03/01 02:42:36;;;;;;;6.70;3.97;;;;;;;2.12;49.20;101274.91;4486272;32;34208;-66
2022/03/01 02:45:09;;;;;;;5.65;3.30;;;;;;;2.12;49.05;101268.72;4486151;32;33724;-68
2022/03/01 02:47:37;;;;;;;5.55;3.28;;;;;;;1.85;49.46;101271.31;4486243;32;33577;-69
2022/03/01 02:50:06;;;;;;;6.65;3.70;;;;;;;1.82;48.72;101270.81;4486055;32;34792;-69
2022/03/01 02:52:34;;;;;;;0.82;0.77;;;;;;;1.78;49.64;101267.59;4486449;32;34204;-68
2022/03/01 02:55:03;;;;;;;5.28;3.35;;;;;;;1.94;48.78;101268.72;4485937;32;34430;-69
2022/03/01 02:57:30;;;;;;;5.95;3.33;;;;;;;1.30;50.35;101263.47;4486407;32;33284;-69
2022/03/01 02:59:58;;;;;;;0.50;0.50;;;;;;;1.63;49.94;101267.28;4486127;32;34602;-68
2022/03/01 03:02:25;;;;;;;5.62;3.20;;;;;;;1.55;49.98;101261.84;4485838;32;34216;-67
2022/03/01 03:04:53;;;;;;;0.40;0.40;;;;;;;1.69;49.34;101257.81;4486071;32;34069;-68
2022/03/01 03:07:20;;;;;;;5.80;3.45;;;;;;;1.67;49.57;101257.13;4486151;32;33458;-68
2022/03/01 03:09:48;;;;;;;6.30;3.22;;;;;;;1.99;48.39;101261.09;4485704;32;34834;-68
2022/03/01 03:12:15;;;;;;;5.43;3.30;;;;;;;2.17;48.40;101261.88;4486075;32;33962;-69
2022/03/01 03:14:43;;;;;;;6.12;3.20;;;;;;;2.41;47.41;101268.38;4485955;32;33922;-68
2022/03/01 03:17:11;;;;;;;7.60;3.37;;;;;;;2.61;47.25;101266.31;4485756;32;33747;-68
2022/03/01 03:19:38;;;;;;;5.35;3.60;;;;;;;2.66;47.55;101269.38;4485977;32;33684;-67
2022/03/01 03:22:06;;;;;;;6.57;3.80;;;;;;;2.77;47.48;101266.41;4485995;32;34222;-68
2022/03/01 03:24:33;;;;;;;6.50;3.50;;;;;;;2.41;48.13;101268.38;4485767;32;34639;-68
2022/03/01 03:27:01;;;;;;;6.90;3.30;;;;;;;2.17;49.00;101261.88;4485966;32;33429;-68
2022/03/01 03:29:28;;;;;;;6.55;3.58;;;;;;;2.02;49.56;101269.62;4485925;32;33967;-69
2022/03/01 03:31:57;;;;;;;5.32;2.97;;;;;;;2.39;48.83;101270.38;4485693;32;35087;-68
2022/03/01 03:34:25;;;;;;;5.78;3.33;;;;;;;1.73;50.34;101269.91;4485796;32;34597;-69
2022/03/01 03:36:52;;;;;;;5.65;3.60;;;;;;;1.61;50.49;101269.28;4485875;32;34354;-67
2022/03/01 03:39:21;;;;;;;6.35;3.67;;;;;;;1.74;50.87;101276.91;4485358;32;34110;-68
2022/03/01 03:41:51;;;;;;;5.80;3.28;;;;;;;1.57;51.44;101283.09;4485886;32;34062;-67
2022/03/01 03:44:18;;;;;;;6.53;3.72;;;;;;;1.36;52.22;101270.00;4485888;32;33848;-68
2022/03/01 03:46:48;;;;;;;0.70;0.70;;;;;;;1.50;52.25;101276.69;4485463;32;33426;-68
2022/03/01 03:49:15;;;;;;;5.15;3.17;;;;;;;1.31;52.81;101280.34;4485855;32;34841;-68
2022/03/01 03:51:42;;;;;;;5.07;3.47;;;;;;;1.61;52.21;101268.44;4485830;32;34198;-68
2022/03/01 03:54:10;;;;;;;1.55;1.05;;;;;;;1.99;50.60;101269.94;4485556;32;34033;-68
2022/03/01 03:56:38;;;;;;;6.47;3.70;;;;;;;1.94;50.70;101274.91;4485700;32;33539;-68
2022/03/01 03:59:07;;;;;;;0.40;0.40;;;;;;;1.96;50.55;101280.13;4486012;32;33926;-68
2022/03/01 04:01:35;;;;;;;5.47;3.22;;;;;;;2.08;50.83;101264.66;4484097;32;34233;-68
2022/03/01 04:04:03;;;;;;;0.40;0.40;;;;;;;1.52;51.92;101272.88;4485605;32;35041;-68
2022/03/01 04:06:31;;;;;;;6.18;3.92;;;;;;;1.38;52.49;101281.41;4485709;32;34562;-68
2022/03/01 04:08:59;;;;;;;6.10;3.65;;;;;;;1.77;52.00;101278.44;4485574;32;33553;-68
2022/03/01 04:11:26;;;;;;;5.53;3.37;;;;;;;1.32;52.74;101272.16;4485287;32;34993;-68
2022/03/01 04:13:54;;;;;;;1.27;0.95;;;;;;;0.95;53.67;101273.09;4485502;32;34048;-68
2022/03/01 04:16:21;;;;;;;2.75;1.48;;;;;;;1.34;52.89;101270.19;4485514;32;33016;-69
2022/03/01 04:18:50;;;;;;;6.03;3.85;;;;;;;1.46;52.52;101278.00;4485489;32;34213;-68
2022/03/01 04:21:17;;;;;;;6.85;3.72;;;;;;;0.58;54.36;101283.78;4485696;32;34229;-68
2022/03/01 04:23:44;;;;;;;7.10;3.62;;;;;;;0.95;53.94;101272.22;4485469;32;33597;-69
2022/03/01 04:26:14;;;;;;;5.90;3.35;;;;;;;1.37;52.98;101271.72;4485469;32;34135;-69
2022/03/01 04:28:42;;;;;;;6.28;3.62;;;;;;;0.95;53.74;101278.44;4485245;32;33951;-71
2022/03/01 04:31:09;;;;;;;5.85;3.30;;;;;;;0.83;54.10;101276.94;4484130;32;34748;-69
2022/03/01 04:33:37;;;;;;;7.53;3.75;;;;;;;0.37;55.22;101270.66;4485470;32;34760;-68
2022/03/01 04:36:07;;;;;;;5.90;3.45;;;;;;;0.41;55.55;101269.34;4485167;32;33594;-69
2022/03/01 04:38:35;;;;;;;6.60;3.30;;;;;;;0.71;54.51;101273.59;4485055;32;33683;-69
2022/03/01 04:41:03;;;;;;;0.55;0.55;;;;;;;0.90;53.87;101275.34;4485272;32;35106;-66
2022/03/01 04:43:31;;;;;;;0.50;0.50;;;;;;;0.79;54.15;101279.06;4484890;32;34727;-69
2022/03/01 04:45:59;;;;;;;6.15;3.53;;;;;;;0.97;54.15;101276.47;4484614;32;33592;-69
2022/03/01 04:48:27;;;;;;;6.60;3.62;;;;;;;0.74;54.32;101281.34;4485423;32;33929;-69
2022/03/01 04:50:54;;;;;;;6.80;3.65;;;;;;;0.57;55.36;101279.44;4485044;32;34295;-69
2022/03/01 04:53:22;;;;;;;4.40;2.37;;;;;;;1.30;52.97;101276.81;4485147;32;34254;-69
2022/03/01 04:55:50;;;;;;;6.00;3.40;;;;;;;0.74;54.46;101278.66;4485125;32;33904;-68
2022/03/01 04:58:18;;;;;;;0.50;0.50;;;;;;;0.72;54.39;101271.78;4485086;32;34092;-68
2022/03/01 05:00:45;;;;;;;5.78;3.78;;;;;;;0.75;54.87;101279.50;4485066;32;33982;-66
2022/03/01 05:03:14;;;;;;;3.50;2.25;;;;;;;0.44;55.56;101279.75;4485073;32;33950;-68
2022/03/01 05:05:42;;;;;;;0.50;0.50;;;;;;;0.72;55.05;101269.94;4484750;32;34138;-66
2022/03/01 05:08:09;;;;;;;6.72;4.15;;;;;;;0.75;54.19;101266.12;4484923;32;33990;-69
2022/03/01 05:10:37;;;;;;;0.40;0.40;;;;;;;1.06;53.81;101268.50;4484997;32;34072;-66
2022/03/01 05:13:09;;;;;;;0.77;0.77;;;;;;;0.65;54.43;101255.50;4484411;32;33763;-69
2022/03/01 05:15:36;;;;;;;5.85;3.78;;;;;;;0.50;55.41;101260.50;4484964;32;33199;-70
2022/03/01 05:18:04;;;;;;;8.20;3.70;;;;;;;0.65;55.07;101262.66;4484697;32;34678;-69
2022/03/01 05:20:31;;;;;;;2.05;1.25;;;;;;;0.65;54.81;101262.66;4484688;32;34119;-66
2022/03/01 05:22:59;;;;;;;6.45;4.18;;;;;;;1.01;54.76;101264.44;4484726;32;33794;-68
2022/03/01 05:25:26;;;;;;;4.25;2.17;;;;;;;0.85;54.19;101264.28;4484707;32;34409;-69
2022/03/01 05:27:54;;;;;;;8.38;3.92;;;;;;;0.27;55.88;101264.47;4484567;32;33488;-70
2022/03/01 05:30:22;;;;;;;8.38;4.45;;;;;;;0.52;55.65;101263.84;4484608;32;34387;-66
2022/03/01 05:32:52;;;;;;;3.97;2.92;;;;;;;0.36;55.61;101266.28;4484796;32;33534;-67
2022/03/01 05:35:25;;;;;;;8.52;4.78;;;;;;;0.98;54.21;101267.44;4484503;32;33624;-69
2022/03/01 05:37:54;;;;;;;1.37;0.98;;;;;;;0.67;54.67;101266.03;4484327;32;33820;-70
2022/03/01 05:40:23;;;;;;;8.85;6.00;;;;;;;0.13;56.95;101265.75;4484042;32;35081;-69
2022/03/01 05:42:51;;;;;;;12.23;8.85;;;;;;;0.27;56.30;101265.31;4482981;32;34914;-69
2022/03/01 05:45:20;;;;;;;1.98;1.50;;;;;;;0.68;55.77;101259.72;4477460;32;33638;-67
2022/03/01 05:47:48;;;;;;;9.88;5.75;;;;;;;0.74;55.61;101261.81;4484003;32;34333;-65
2022/03/01 05:50:16;;;;;;;4.37;2.92;;;;;;;0.67;55.50;101260.69;4483031;32;35001;-66
2022/03/01 05:52:49;;;;;;;7.65;5.05;;;;;;;0.54;55.84;101269.88;4484042;32;33718;-67
2022/03/01 05:55:17;;;;;;;2.62;2.15;;;;;;;0.47;56.30;101265.25;4482197;31;34557;-66
2022/03/01 05:57:44;;;;;;;8.77;4.75;;;;;;;-0.19;58.51;101274.09;4483049;32;34063;-67
2022/03/01 06:00:15;;;;;;;1.35;1.25;;;;;;;0.63;55.89;101273.50;4475313;31;35014;-65
2022/03/01 06:02:43;;;;;;;5.78;3.87;;;;;;;0.41;56.67;101269.34;4484632;32;34570;-67
2022/03/01 06:05:15;;;;;;;6.47;4.18;;;;;;;0.74;55.46;101278.66;4485189;32;34412;-67
2022/03/01 06:07:44;;;;;;;7.60;4.55;;;;;;;0.22;57.13;101282.75;4484848;32;35272;-68
2022/03/01 06:10:11;;;;;;;0.68;0.60;;;;;;;0.56;56.07;101288.41;4484636;32;34075;-68
2022/03/01 06:12:39;;;;;;;1.80;1.15;;;;;;;1.14;54.50;101287.31;4484740;32;33886;-64
2022/03/01 06:15:07;;;;;;;7.30;4.07;;;;;;;0.31;55.37;101288.06;4484274;32;32934;-68
2022/03/01 06:17:36;;;;;;;5.60;3.40;;;;;;;0.48;55.21;101283.81;4484827;32;33964;-66
2022/03/01 06:20:04;;;;;;;8.10;4.80;;;;;;;0.72;54.07;101282.47;4469329;32;35027;-64
2022/03/01 06:22:32;;;;;;;10.90;5.95;;;;;;;1.35;52.40;101289.75;4468351;32;33936;-66
2022/03/01 06:24:59;;;;;;;1.02;0.90;;;;;;;0.88;53.44;101287.19;4482593;32;34467;-65
2022/03/01 06:27:26;;;;;;;50.70;21.37;;;;;;;1.25;53.25;101292.47;4484952;32;33923;-68
2022/03/01 06:29:54;;;;;;;49.65;21.15;;;;;;;2.15;52.49;101276.41;4482455;32;35017;-65
2022/03/01 06:32:21;;;;;;;17.30;8.93;;;;;;;3.11;49.43;101280.78;4484804;32;34132;-65
2022/03/01 06:34:50;;;;;;;11.27;7.78;;;;;;;3.85;46.45;101284.47;4484390;32;34474;-65
2022/03/01 06:37:35;;;;;;;10.65;7.15;;;;;;;4.71;44.25;101278.50;4484755;32;33726;-64
2022/03/01 06:40:06;;;;;;;6.85;3.85;;;;;;;5.95;42.06;101279.50;4484459;32;33981;-64
2022/03/01 06:42:34;;;;;;;8.50;4.82;;;;;;;6.65;39.64;101277.53;4484289;32;34598;-65
2022/03/01 06:45:03;;;;;;;6.32;3.70;;;;;;;6.83;40.59;101279.00;4483923;32;33082;-66
2022/03/01 06:47:31;;;;;;;5.65;3.10;;;;;;;7.49;39.12;101279.81;4483500;32;33546;-65
2022/03/01 06:49:59;;;;;;;8.18;4.53;;;;;;;7.56;37.63;101288.84;4484319;32;33931;-64
2022/03/01 06:52:27;;;;;;;8.50;4.18;;;;;;;8.25;36.01;101276.59;4484386;32;33750;-66
2022/03/01 06:54:54;;;;;;;6.85;3.87;;;;;;;8.95;34.99;101280.19;4484626;32;35002;-65
2022/03/01 06:57:21;;;;;;;5.57;3.55;;;;;;;9.32;34.40;101283.47;4484504;32;33709;-67
2022/03/01 06:59:53;;;;;;;6.18;3.30;;;;;;;9.56;32.68;101282.09;4483636;32;34283;-65
2022/03/01 07:02:21;;;;;;;4.80;2.92;;;;;;;10.43;32.29;101274.06;4484253;32;34487;-63
2022/03/01 07:04:48;;;;;;;4.60;2.75;;;;;;;9.16;32.71;101268.44;4484580;32;33724;-65
2022/03/01 07:07:16;;;;;;;5.72;2.70;;;;;;;8.42;33.34;101269.03;4484543;32;34021;-65
2022/03/01 07:09:44;;;;;;;4.65;3.12;;;;;;;8.68;32.37;101265.66;4484233;32;34148;-66
2022/03/01 07:12:11;;;;;;;5.78;2.70;;;;;;;10.06;31.96;101270.91;4483832;32;34377;-69
2022/03/01 07:14:39;;;;;;;6.68;2.67;;;;;;;9.74;31.48;101261.69;4483353;32;34277;-67
2022/03/01 07:17:06;;;;;;;4.30;2.33;;;;;;;9.59;31.21;101264.56;4479586;32;34013;-68
2022/03/01 07:19:34;;;;;;;4.22;2.42;;;;;;;9.39;31.58;101251.81;4468731;32;33970;-67
2022/03/01 07:22:02;;;;;;;3.42;2.17;;;;;;;9.21;31.67;101260.53;4468408;32;34029;-66
2022/03/01 07:24:29;;;;;;;3.75;2.25;;;;;;;10.06;30.51;101250.06;4468338;32;33924;-66
2022/03/01 07:26:57;;;;;;;4.03;2.30;;;;;;;9.76;30.63;101246.91;4468712;32;33613;-66
2022/03/01 07:29:24;;;;;;;4.22;2.50;;;;;;;9.35;31.61;101247.88;4468225;32;34167;-66
2022/03/01 07:31:52;;;;;;;3.95;2.35;;;;;;;9.04;31.63;101245.66;4468154;32;33982;-66
2022/03/01 07:34:25;;;;;;;3.95;2.60;;;;;;;8.38;32.95;101244.25;4468496;32;34301;-67
2022/03/01 07:36:53;;;;;;;3.33;2.17;;;;;;;9.17;31.03;101245.72;4478296;32;34805;-67
2022/03/01 07:39:20;;;;;;;3.37;2.20;;;;;;;8.31;33.26;101239.81;4484057;32;35199;-66
2022/03/01 07:41:49;;;;;;;3.30;2.08;;;;;;;8.45;33.13;101243.50;4484276;32;34850;-68
2022/03/01 07:44:17;;;;;;;3.60;2.03;;;;;;;7.17;33.05;101235.19;4482403;32;33256;-68
2022/03/01 07:46:46;;;;;;;6.78;2.17;;;;;;;6.33;34.51;101240.94;4483651;32;33954;-69
2022/03/01 07:49:13;;;;;;;3.17;2.00;;;;;;;6.23;35.18;101241.19;4484300;32;34184;-68
2022/03/01 07:51:41;;;;;;;3.40;2.10;;;;;;;6.46;34.40;101234.94;4484423;32;33716;-69
2022/03/01 07:54:08;;;;;;;4.60;2.30;;;;;;;6.55;34.89;101239.19;4484066;32;34433;-68
2022/03/01 07:56:36;;;;;;;4.50;2.10;;;;;;;5.22;36.88;101243.13;4484292;32;33852;-66
2022/03/01 07:59:03;;;;;;;4.90;2.70;;;;;;;5.80;35.58;101235.50;4484094;32;33852;-68
2022/03/01 08:01:31;;;;;;;4.12;2.75;;;;;;;6.25;36.18;101243.72;4483769;32;33663;-67
2022/03/01 08:03:59;;;;;;;3.60;1.85;;;;;;;6.69;34.78;101248.31;4483273;32;33601;-65
2022/03/01 08:06:26;;;;;;;3.30;1.95;;;;;;;6.26;35.27;101243.53;4482983;32;33609;-67
2022/03/01 08:08:54;;;;;;;3.78;2.12;;;;;;;6.38;35.11;101241.22;4483514;32;34186;-65
2022/03/01 08:11:22;;;;;;;3.45;2.00;;;;;;;6.17;35.65;101239.25;4484134;32;34808;-68
2022/03/01 08:13:49;;;;;;;3.33;1.40;;;;;;;5.76;35.76;101240.41;4483341;32;33754;-64
2022/03/01 08:16:17;;;;;;;3.17;2.00;;;;;;;5.97;35.27;101241.62;4483954;32;33969;-65
2022/03/01 08:18:44;;;;;;;3.33;2.05;;;;;;;6.32;34.92;101240.09;4484048;32;34186;-66
2022/03/01 08:21:12;;;;;;;3.55;1.90;;;;;;;6.92;33.67;101237.41;4483096;32;34630;-65
2022/03/01 08:23:41;;;;;;;2.97;1.90;;;;;;;5.88;35.10;101250.75;4484294;32;33105;-66
2022/03/01 08:26:08;;;;;;;5.53;2.12;;;;;;;6.31;34.52;101243.81;4484058;32;34078;-68
2022/03/01 08:28:36;;;;;;;3.58;1.80;;;;;;;6.14;34.54;101245.00;4483468;32;34255;-66
2022/03/01 08:31:03;;;;;;;4.07;2.17;;;;;;;6.12;35.43;101244.34;4483059;32;34807;-65
2022/03/01 08:33:32;;;;;;;2.62;1.90;;;;;;;6.68;34.44;101239.38;4484078;32;34474;-66
2022/03/01 08:36:01;;;;;;;3.10;1.80;;;;;;;6.34;34.82;101248.84;4483210;32;34093;-66
2022/03/01 08:38:28;;;;;;;2.75;1.60;;;;;;;6.01;34.77;101247.50;4479813;32;102954;-69
2022/03/01 08:40:59;;;;;;;2.53;1.67;;;;;;;6.30;34.32;101238.59;4483880;32;35452;-68
2022/03/01 08:43:26;;;;;;;3.87;2.03;;;;;;;6.77;34.20;101235.56;4483246;32;33876;-67
2022/03/01 08:45:54;;;;;;;4.10;1.87;;;;;;;6.14;34.25;101226.13;4483594;32;34856;-67
2022/03/01 08:48:21;;;;;;;3.95;1.80;;;;;;;6.25;34.29;101235.62;4483705;32;35101;-65
2022/03/01 08:50:49;;;;;;;3.42;2.10;;;;;;;5.72;34.26;101231.03;4483458;32;34645;-66
2022/03/01 08:53:17;;;;;;;3.67;2.05;;;;;;;5.45;34.78;101228.88;4482265;32;34244;-67
2022/03/01 08:55:45;;;;;;;2.15;1.48;;;;;;;5.39;35.47;101225.03;4483317;32;34529;-66
2022/03/01 08:58:13;;;;;;;2.75;1.65;;;;;;;6.11;34.74;101227.34;4483524;32;34219;-65
2022/03/01 09:00:40;;;;;;;3.70;2.20;;;;;;;6.10;33.82;101219.44;4483361;32;34807;-65
2022/03/01 09:03:08;;;;;;;2.87;1.62;;;;;;;6.43;33.98;101219.09;4483331;32;34129;-67
2022/03/01 09:05:36;;;;;;;2.92;1.83;;;;;;;6.88;31.88;101207.25;4483142;32;34607;-67
2022/03/01 09:08:04;;;;;;;3.20;1.83;;;;;;;6.21;33.20;101219.00;4482595;32;34347;-67
2022/03/01 09:10:32;;;;;;;3.42;2.00;;;;;;;5.84;33.01;101211.75;4483374;32;34405;-66
2022/03/01 09:13:00;;;;;;;3.80;2.17;;;;;;;6.47;33.41;101215.00;4483248;32;34040;-66
2022/03/01 09:15:31;;;;;;;3.60;1.50;;;;;;;6.46;33.55;101218.75;4482997;32;33880;-67
2022/03/01 09:18:00;;;;;;;5.53;2.20;;;;;;;6.43;33.55;101219.94;4483129;32;34044;-66
2022/03/01 09:20:29;;;;;;;4.55;1.80;;;;;;;7.04;32.34;101205.38;4483415;32;33836;-68
2022/03/01 09:22:57;;;;;;;3.50;2.22;;;;;;;6.76;32.07;101203.37;4484302;32;33446;-69
2022/03/01 09:25:25;;;;;;;3.12;1.87;;;;;;;6.20;31.74;101195.78;4482796;32;33656;-66
2022/03/01 09:27:53;;;;;;;3.35;2.05;;;;;;;6.76;32.88;101206.91;4484261;32;35241;-69
2022/03/01 09:30:21;;;;;;;2.83;1.80;;;;;;;7.03;32.02;101199.13;4483270;32;34038;-70
2022/03/01 09:32:49;;;;;;;3.60;2.12;;;;;;;6.88;31.74;101203.72;4484886;32;33393;-66
2022/03/01 09:35:17;;;;;;;3.30;1.80;;;;;;;7.79;32.36;101198.66;4485849;32;34506;-65
2022/03/01 09:37:45;;;;;;;2.50;1.50;;;;;;;7.71;30.49;101186.13;4486570;32;34278;-69
2022/03/01 09:40:14;;;;;;;3.37;1.40;;;;;;;7.57;30.08;101193.25;4485498;32;34687;-68
2022/03/01 09:42:42;;;;;;;2.22;1.50;;;;;;;6.91;30.68;101182.63;4485279;32;33702;-68
2022/03/01 09:45:13;;;;;;;2.85;1.33;;;;;;;6.36;30.79;101182.09;4486393;32;33933;-68
2022/03/01 09:47:41;;;;;;;4.43;2.10;;;;;;;6.93;30.34;101183.25;4484801;32;35214;-67
2022/03/01 09:50:09;;;;;;;2.97;1.75;;;;;;;7.40;30.63;101172.94;4486247;32;34932;-67
2022/03/01 09:52:37;;;;;;;2.42;1.40;;;;;;;7.01;30.70;101181.47;4486582;32;33244;-68
2022/03/01 09:55:06;;;;;;;3.12;1.62;;;;;;;7.05;31.05;101158.47;4486232;32;33941;-67
2022/03/01 09:57:37;;;;;;;3.00;1.60;;;;;;;7.51;30.84;101158.91;4486357;32;34013;-67
2022/03/01 10:00:06;;;;;;;2.80;1.73;;;;;;;8.12;28.71;101162.94;4486220;32;33933;-67
2022/03/01 10:02:40;;;;;;;3.95;1.55;;;;;;;8.31;29.29;101156.81;4485886;32;33017;-66
2022/03/01 10:05:10;;;;;;;2.90;1.55;;;;;;;7.21;28.84;101146.59;4486511;32;33931;-66
2022/03/01 10:07:43;;;;;;;2.20;1.50;;;;;;;8.54;28.27;101147.62;4485699;32;35165;-67
2022/03/01 10:10:16;;;;;;;2.22;1.60;;;;;;;7.51;29.48;101141.87;4486453;32;34747;-68
2022/03/01 10:12:53;;;;;;;2.63;1.67;;;;;;;7.32;29.61;101144.22;4486385;32;33347;-71
2022/03/01 10:15:28;;;;;;;2.33;1.62;;;;;;;6.90;29.74;101134.22;4485937;32;34160;-67
2022/03/01 10:17:55;;;;;;;3.05;1.80;;;;;;;7.08;31.59;101145.41;4485832;32;34266;-72
2022/03/01 10:20:23;;;;;;;3.65;1.77;;;;;;;7.13;29.88;101140.31;4485886;32;33977;-71
2022/03/01 10:22:56;;;;;;;2.22;1.37;;;;;;;7.81;28.70;101134.44;4486095;32;33260;-68
2022/03/01 10:25:26;;;;;;;2.65;1.52;;;;;;;7.72;28.79;101125.66;4484878;32;34026;-71
2022/03/01 10:27:56;;;;;;;2.22;1.60;;;;;;;7.87;27.40;101113.91;4485946;32;33951;-71
2022/03/01 10:30:27;;;;;;;2.97;1.90;;;;;;;7.43;28.93;101117.72;4484728;32;33687;-69
2022/03/01 10:33:06;;;;;;;2.92;1.80;;;;;;;7.84;28.88;101111.59;4485994;32;33635;-70
2022/03/01 10:35:39;;;;;;;2.35;1.55;;;;;;;7.97;29.15;101114.41;4486076;32;33612;-72
2022/03/01 10:38:07;;;;;;;3.20;1.65;;;;;;;9.00;25.99;101103.62;4485722;32;34151;-73
2022/03/01 10:40:39;;;;;;;2.08;1.48;;;;;;;8.41;26.86;101113.22;4485789;32;34884;-71
2022/03/01 10:43:10;;;;;;;3.83;1.52;;;;;;;8.66;27.15;101110.84;4485031;32;34315;-74
2022/03/01 10:45:41;;;;;;;2.90;2.03;;;;;;;8.94;26.38;101104.44;4485309;32;33947;-72
2022/03/01 10:48:11;;;;;;;3.30;1.83;;;;;;;9.46;25.02;101094.75;4485609;32;34193;-66
2022/03/01 10:50:40;;;;;;;2.47;1.77;;;;;;;9.92;25.01;101091.16;4485975;32;34004;-75
2022/03/01 10:53:07;;;;;;;3.25;1.55;;;;;;;8.44;26.64;101093.88;4484700;32;33362;-69
2022/03/01 10:55:38;;;;;;;2.97;1.62;;;;;;;8.08;27.89;101077.84;4486024;32;33982;-68
2022/03/01 10:58:12;;;;;;;2.10;1.50;;;;;;;8.58;28.20;101076.66;4485466;32;34079;-66
2022/03/01 11:00:40;;;;;;;3.50;1.65;;;;;;;9.61;23.78;101068.25;4485451;32;34056;-65
2022/03/01 11:03:09;;;;;;;2.15;1.30;;;;;;;9.59;24.23;101055.94;4485279;32;33485;-67
2022/03/01 11:05:37;;;;;;;2.42;1.40;;;;;;;8.58;26.20;101056.91;4485968;32;34709;-72
2022/03/01 11:08:37;;;;;;;2.55;1.52;;;;;;;9.47;24.13;101050.34;4484612;32;35067;-70
2022/03/01 11:11:07;;;;;;;2.78;1.75;;;;;;;9.43;24.78;101055.34;4485795;32;33782;-70
2022/03/01 11:13:40;;;;;;;2.10;1.65;;;;;;;9.88;23.40;101049.22;4484619;32;33443;-70
2022/03/01 11:16:32;;;;;;;4.12;1.60;;;;;;;9.96;24.32;101048.19;4485438;32;33939;-70
2022/03/01 11:19:05;;;;;;;3.95;2.20;;;;;;;10.06;24.10;101041.28;4484874;32;34140;-70
2022/03/01 11:21:34;;;;;;;2.35;1.35;;;;;;;10.01;23.74;101027.50;4485558;32;33845;-70
2022/03/01 11:24:03;;;;;;;3.22;1.40;;;;;;;8.82;26.29;101023.84;4484808;32;33354;-70
2022/03/01 11:26:36;;;;;;;2.78;1.65;;;;;;;9.62;24.89;101025.72;4485967;32;34627;-71
2022/03/01 11:29:09;;;;;;;3.53;1.80;;;;;;;9.47;25.67;101015.12;4485677;32;35107;-70
2022/03/01 11:31:38;;;;;;;3.12;1.67;;;;;;;9.95;24.65;101019.38;4485486;32;33992;-66
2022/03/01 11:34:11;;;;;;;2.97;1.73;;;;;;;10.10;23.53;101013.72;4485396;32;34387;-68
2022/03/01 11:36:39;;;;;;;2.42;1.52;;;;;;;9.88;23.34;101005.03;4485677;32;34759;-70
2022/03/01 11:39:13;;;;;;;3.40;1.60;;;;;;;8.99;23.57;101005.34;4481640;32;34165;-71